Time;durP1;ratioP1;P1;durP2;ratioP2;P2;SDS_P1;SDS_P2;PMS_P1;PMS_P2;Temp;Humidity;BMP_temperature;BMP_pressure;BME280_temperature;BME280_humidity;BME280_pressure;Samples;Min_cycle;Max_cycle;Signal;HPM_P1;HPM_P2
2021/04/19 00:02:17;;;;;;;32.65;18.58;;;;;;;4.47;100.00;101258.53;3574262;40;20060;-44
2021/04/19 00:04:44;;;;;;;31.35;18.25;;;;;;;4.44;100.00;101257.50;3574435;40;20085;-42
2021/04/19 00:07:11;;;;;;;31.52;18.52;;;;;;;4.42;100.00;101253.97;3574152;40;20048;-43
2021/04/19 00:09:37;;;;;;;33.30;19.35;;;;;;;4.36;100.00;101257.03;3574330;40;20115;-43
2021/04/19 00:12:05;;;;;;;37.35;19.98;;;;;;;4.39;100.00;101258.84;3574356;40;20683;-43
2021/04/19 00:14:32;;;;;;;29.55;18.38;;;;;;;4.29;100.00;101254.91;3574514;40;20124;-43
2021/04/19 00:16:59;;;;;;;30.98;19.40;;;;;;;4.28;100.00;101255.69;3574245;40;20048;-43
2021/04/19 00:19:26;;;;;;;32.65;19.25;;;;;;;4.44;100.00;101249.88;3574418;40;20075;-46
2021/04/19 00:21:53;;;;;;;31.42;18.75;;;;;;;4.40;100.00;101242.88;3574255;40;20068;-42
2021/04/19 00:24:20;;;;;;;40.03;21.20;;;;;;;4.30;100.00;101249.94;3574366;40;20077;-45
2021/04/19 00:26:47;;;;;;;43.17;22.15;;;;;;;4.29;100.00;101244.75;3574318;40;20112;-43
2021/04/19 00:29:13;;;;;;;35.28;20.77;;;;;;;4.33;100.00;101244.16;3574063;40;20077;-45
2021/04/19 00:31:40;;;;;;;54.65;24.48;;;;;;;4.24;100.00;101244.47;3574217;40;20063;-43
2021/04/19 00:34:07;;;;;;;42.15;21.13;;;;;;;4.30;100.00;101254.13;3574050;40;20060;-45
2021/04/19 00:36:33;;;;;;;41.67;21.77;;;;;;;4.45;100.00;101251.63;3574366;40;20064;-43
2021/04/19 00:39:00;;;;;;;54.58;22.33;;;;;;;4.67;100.00;101253.75;3574260;40;20060;-43
2021/04/19 00:41:27;;;;;;;46.58;22.67;;;;;;;4.72;100.00;101249.84;3574216;40;20108;-43
2021/04/19 00:43:54;;;;;;;44.75;21.52;;;;;;;4.65;100.00;101252.78;3573907;40;20037;-42
2021/04/19 00:46:20;;;;;;;47.88;22.60;;;;;;;4.89;100.00;101249.13;3574174;40;20076;-43
2021/04/19 00:48:47;;;;;;;47.33;22.85;;;;;;;4.95;100.00;101253.69;3573932;40;20080;-45
2021/04/19 00:51:14;;;;;;;41.00;20.25;;;;;;;4.85;100.00;101254.81;3574207;40;20181;-45
2021/04/19 00:53:41;;;;;;;41.20;19.83;;;;;;;4.59;100.00;101254.19;3574149;40;20061;-43
2021/04/19 00:56:09;;;;;;;54.13;23.33;;;;;;;4.44;100.00;101250.75;3574137;40;20056;-43
2021/04/19 00:58:37;;;;;;;64.85;23.60;;;;;;;4.32;100.00;101253.44;3574000;40;20057;-43
2021/04/19 01:01:06;;;;;;;48.63;23.30;;;;;;;4.42;100.00;101264.13;3574165;40;20049;-43
2021/04/19 01:03:33;;;;;;;73.40;24.30;;;;;;;4.62;100.00;101257.69;3572764;40;20057;-45
2021/04/19 01:06:00;;;;;;;51.65;21.55;;;;;;;4.86;100.00;101254.06;3574005;40;20049;-43
2021/04/19 01:08:27;;;;;;;49.50;21.63;;;;;;;4.77;100.00;101258.59;3570956;40;20416;-43
2021/04/19 01:10:53;;;;;;;41.90;20.02;;;;;;;4.79;100.00;101251.94;3574105;40;20049;-43
2021/04/19 01:13:20;;;;;;;43.30;20.35;;;;;;;4.80;100.00;101254.53;3575404;40;20051;-44
2021/04/19 01:15:46;;;;;;;58.15;21.25;;;;;;;4.69;100.00;101248.00;3577603;40;20063;-42
2021/04/19 01:18:13;;;;;;;129.18;25.58;;;;;;;4.91;100.00;101251.78;3575418;40;20084;-44
2021/04/19 01:20:41;;;;;;;49.33;21.70;;;;;;;4.83;100.00;101249.66;3574398;40;20044;-43
2021/04/19 01:23:08;;;;;;;55.78;23.55;;;;;;;4.62;100.00;101248.41;3574018;40;20033;-45
2021/04/19 01:25:35;;;;;;;95.68;23.70;;;;;;;4.29;100.00;101250.69;3573997;40;20049;-43
2021/04/19 01:28:02;;;;;;;64.13;22.92;;;;;;;4.14;100.00;101248.91;3574033;40;20765;-43
2021/04/19 01:30:35;;;;;;;68.35;22.77;;;;;;;4.01;100.00;101249.81;3573761;40;20101;-43
2021/04/19 01:33:02;;;;;;;132.77;27.10;;;;;;;3.96;100.00;101257.16;3573364;40;20049;-43
2021/04/19 01:35:30;;;;;;;62.33;22.17;;;;;;;3.94;100.00;101258.72;3573736;40;20048;-42
2021/04/19 01:37:58;;;;;;;61.03;22.80;;;;;;;3.90;100.00;101255.91;3573706;40;20060;-43
2021/04/19 01:40:24;;;;;;;54.17;22.58;;;;;;;3.98;100.00;101255.59;3573850;40;20057;-45
2021/04/19 01:42:51;;;;;;;72.13;22.83;;;;;;;4.00;100.00;101254.03;3573410;40;20060;-45
2021/04/19 01:45:18;;;;;;;35.63;19.20;;;;;;;4.26;100.00;101245.47;3573514;40;20686;-43
2021/04/19 01:47:45;;;;;;;47.60;22.15;;;;;;;4.01;100.00;101243.09;3573156;40;20073;-45
2021/04/19 01:50:16;;;;;;;41.33;20.08;;;;;;;4.12;100.00;101246.31;3572426;40;20041;-44
2021/04/19 01:52:42;;;;;;;37.38;18.75;;;;;;;4.32;100.00;101245.81;3573503;40;20097;-42
2021/04/19 01:55:15;;;;;;;40.30;20.08;;;;;;;3.95;100.00;101242.72;3573504;40;20346;-43
2021/04/19 01:57:46;;;;;;;41.97;19.98;;;;;;;3.90;100.00;101246.66;3573428;40;20045;-42
2021/04/19 02:00:13;;;;;;;82.03;21.27;;;;;;;3.87;100.00;101248.09;3572368;40;20057;-46
2021/04/19 02:02:52;;;;;;;42.60;20.58;;;;;;;3.75;100.00;101246.59;3573491;40;20061;-46
2021/04/19 02:06:14;;;;;;;50.33;21.95;;;;;;;3.72;100.00;101256.50;3573301;40;20107;-41
2021/04/19 02:08:43;;;;;;;73.00;21.40;;;;;;;3.78;100.00;101259.41;3555435;40;20616;-43
2021/04/19 02:11:27;;;;;;;29.23;18.33;;;;;;;3.90;100.00;101261.84;3573584;40;20724;-43
2021/04/19 02:14:03;;;;;;;28.40;17.92;;;;;;;4.09;100.00;101263.84;3573538;40;20077;-45
2021/04/19 02:16:45;;;;;;;33.42;18.27;;;;;;;4.08;100.00;101254.50;3571131;40;20782;-43
2021/04/19 02:19:36;;;;;;;42.47;16.95;;;;;;;4.30;100.00;101257.53;3571895;40;20119;-43
2021/04/19 02:22:24;;;;;;;43.78;17.95;;;;;;;4.04;100.00;101258.50;3573577;40;20056;-44
2021/04/19 02:24:58;;;;;;;29.50;15.85;;;;;;;4.11;100.00;101261.38;3573081;40;20061;-45
2021/04/19 02:27:37;;;;;;;35.92;17.02;;;;;;;3.85;100.00;101260.69;3573634;40;20049;-43
2021/04/19 02:30:11;;;;;;;54.97;19.00;;;;;;;3.70;100.00;101258.09;3573516;40;20442;-45
2021/04/19 02:32:43;;;;;;;43.55;19.95;;;;;;;3.55;100.00;101254.56;3573207;40;20192;-43
2021/04/19 02:35:14;;;;;;;37.78;18.40;;;;;;;3.68;100.00;101262.16;3573211;40;20122;-42
2021/04/19 02:37:42;;;;;;;43.20;18.48;;;;;;;3.69;100.00;101260.50;3573451;40;20088;-43
2021/04/19 02:40:10;;;;;;;40.85;17.25;;;;;;;3.78;100.00;101264.47;3573305;40;20056;-43
2021/04/19 02:42:42;;;;;;;63.58;19.88;;;;;;;3.80;100.00;101257.88;3573422;40;20076;-43
2021/04/19 02:45:14;;;;;;;35.13;17.88;;;;;;;3.82;100.00;101260.50;3573149;40;20088;-45
2021/04/19 02:47:47;;;;;;;48.45;19.27;;;;;;;3.90;100.00;101259.31;3573658;40;20322;-43
2021/04/19 02:50:17;;;;;;;31.13;17.08;;;;;;;4.23;100.00;101257.06;3572978;40;20055;-45
2021/04/19 02:52:45;;;;;;;119.18;22.30;;;;;;;3.96;100.00;101258.81;3572019;40;20583;-44
2021/04/19 02:55:13;;;;;;;32.33;16.80;;;;;;;4.18;100.00;101251.72;3571809;40;20056;-43
2021/04/19 02:57:53;;;;;;;35.00;17.38;;;;;;;4.39;100.00;101257.22;3573524;40;20108;-43
2021/04/19 03:00:50;;;;;;;45.25;18.25;;;;;;;4.01;100.00;101259.97;3574684;40;20052;-45
2021/04/19 03:03:24;;;;;;;;;;;;;;;3.93;100.00;101254.44;3574304;40;20037;-44
2021/04/19 03:05:55;;;;;;;73.95;19.05;;;;;;;3.87;100.00;101255.72;3574511;40;20037;-42
2021/04/19 03:08:23;;;;;;;54.22;17.13;;;;;;;4.03;100.00;101248.28;3574649;40;20097;-44
2021/04/19 03:11:06;;;;;;;48.30;16.55;;;;;;;3.85;100.00;101247.16;3574588;40;20462;-43
2021/04/19 03:13:37;;;;;;;30.60;17.13;;;;;;;3.77;100.00;101239.94;3572503;40;20036;-43
2021/04/19 03:16:04;;;;;;;28.50;16.55;;;;;;;3.80;100.00;101249.41;3575062;40;20335;-46
2021/04/19 03:18:35;;;;;;;69.72;19.08;;;;;;;3.64;100.00;101250.09;3574482;40;20049;-43
2021/04/19 03:21:11;;;;;;;42.17;17.15;;;;;;;4.03;100.00;101248.28;3574627;40;20044;-42
2021/04/19 03:23:45;;;;;;;58.53;18.45;;;;;;;3.87;100.00;101248.97;3574352;40;20052;-43
2021/04/19 03:26:14;;;;;;;54.95;17.58;;;;;;;3.89;100.00;101247.44;3573484;40;20096;-43
2021/04/19 03:28:44;;;;;;;43.25;16.88;;;;;;;4.53;100.00;101242.78;3574524;40;20072;-43
2021/04/19 03:31:24;;;;;;;27.90;15.70;;;;;;;4.82;100.00;101240.31;3574176;40;20089;-44
2021/04/19 03:33:56;;;;;;;57.65;17.35;;;;;;;4.02;100.00;101247.41;3574051;40;20102;-43
2021/04/19 03:36:25;;;;;;;30.95;15.73;;;;;;;3.72;100.00;101241.31;3574380;40;20089;-43
2021/04/19 03:38:52;;;;;;;58.63;18.10;;;;;;;3.61;100.00;101246.50;3574561;40;20081;-43
2021/04/19 03:41:21;;;;;;;39.33;18.42;;;;;;;3.55;100.00;101246.97;3574273;40;20081;-45
2021/04/19 03:43:54;;;;;;;45.55;19.02;;;;;;;3.41;100.00;101246.13;3574073;40;20076;-43
2021/04/19 03:46:22;;;;;;;39.35;19.45;;;;;;;3.38;100.00;101248.47;3574162;40;20092;-42
2021/04/19 03:48:58;;;;;;;33.22;17.83;;;;;;;3.57;100.00;101253.03;3574234;40;20495;-43
2021/04/19 03:51:26;;;;;;;34.58;17.90;;;;;;;3.70;100.00;101255.56;3574465;40;20315;-44
2021/04/19 03:53:59;;;;;;;41.53;16.73;;;;;;;4.40;100.00;101253.03;3574274;40;20072;-51
2021/04/19 03:56:30;;;;;;;48.40;17.90;;;;;;;3.78;100.00;101254.34;3574423;40;20071;-42
2021/04/19 03:59:01;;;;;;;26.98;16.30;;;;;;;3.85;100.00;101248.03;3574236;40;20069;-43
2021/04/19 04:01:28;;;;;;;44.55;16.50;;;;;;;4.04;100.00;101247.50;3569069;40;20045;-43
2021/04/19 04:03:57;;;;;;;30.17;16.35;;;;;;;3.83;100.00;101250.44;3572736;40;20825;-44
2021/04/19 04:06:26;;;;;;;45.78;17.63;;;;;;;4.32;100.00;101248.34;3574219;40;20052;-42
2021/04/19 04:08:55;;;;;;;27.27;16.50;;;;;;;3.94;100.00;101248.59;3574199;40;20061;-44
2021/04/19 04:11:22;;;;;;;49.65;17.17;;;;;;;4.16;100.00;101248.25;3574848;40;20053;-43
2021/04/19 04:13:49;;;;;;;36.60;17.33;;;;;;;3.97;100.00;101248.75;3576735;40;20064;-45
2021/04/19 04:16:15;;;;;;;36.70;16.42;;;;;;;4.05;100.00;101252.63;3576794;40;20053;-43
2021/04/19 04:18:42;;;;;;;39.70;16.08;;;;;;;3.73;100.00;101250.66;3574964;40;20050;-42
2021/04/19 04:21:10;;;;;;;36.90;16.48;;;;;;;3.91;100.00;101262.72;3574522;40;20141;-43
2021/04/19 04:23:38;;;;;;;38.55;21.73;;;;;;;4.16;100.00;101262.53;3574602;40;20418;-43
2021/04/19 04:26:04;;;;;;;78.95;23.00;;;;;;;3.75;100.00;101274.44;3574502;40;20041;-44
2021/04/19 04:28:31;;;;;;;36.83;17.48;;;;;;;4.30;100.00;101261.75;3574574;40;20402;-44
2021/04/19 04:30:58;;;;;;;71.10;20.60;;;;;;;3.75;100.00;101274.44;3574500;40;20138;-42
2021/04/19 04:33:24;;;;;;;43.08;22.58;;;;;;;4.13;100.00;101275.94;3574347;40;20077;-44
2021/04/19 04:35:51;;;;;;;43.50;22.77;;;;;;;3.96;100.00;101272.34;3574124;40;20134;-42
2021/04/19 04:38:19;;;;;;;103.05;24.55;;;;;;;3.81;100.00;101274.81;3574204;40;20037;-43
2021/04/19 04:40:45;;;;;;;57.30;19.10;;;;;;;4.27;100.00;101277.63;3573918;40;20041;-43
2021/04/19 04:43:17;;;;;;;60.47;17.50;;;;;;;4.23;100.00;101265.56;3573019;40;20068;-42
2021/04/19 04:45:43;;;;;;;40.58;17.45;;;;;;;4.83;100.00;101264.00;3574405;40;20081;-43
2021/04/19 04:48:18;;;;;;;68.70;18.58;;;;;;;4.38;100.00;101272.31;3574322;40;20149;-46
2021/04/19 04:51:08;;;;;;;50.10;17.05;;;;;;;5.03;100.00;101267.69;3574192;40;20510;-43
2021/04/19 04:53:37;;;;;;;105.05;19.08;;;;;;;4.36;100.00;101269.69;3569131;40;20063;-43
2021/04/19 04:56:06;;;;;;;47.10;17.45;;;;;;;4.95;100.00;101262.19;3572829;40;20300;-45
2021/04/19 04:58:35;;;;;;;66.18;18.60;;;;;;;5.05;100.00;101261.03;3574096;40;20073;-42
2021/04/19 05:01:03;;;;;;;52.25;18.00;;;;;;;4.74;100.00;101266.00;3572895;40;20130;-42
2021/04/19 05:03:31;;;;;;;60.30;18.58;;;;;;;4.69;100.00;101264.88;3573701;40;20060;-43
2021/04/19 05:05:58;;;;;;;79.43;20.08;;;;;;;5.23;100.00;101264.63;3572871;40;20642;-42
2021/04/19 05:08:26;;;;;;;45.25;15.73;;;;;;;5.54;100.00;101263.78;3574322;40;20049;-44
2021/04/19 05:10:56;;;;;;;45.30;18.33;;;;;;;4.97;100.00;101265.69;3573321;40;20716;-43
2021/04/19 05:13:23;;;;;;;55.55;18.15;;;;;;;4.94;100.00;101269.69;3574119;40;20366;-42
2021/04/19 05:15:50;;;;;;;45.30;18.58;;;;;;;5.06;100.00;101267.88;3574001;40;20061;-42
2021/04/19 05:18:18;;;;;;;105.63;20.35;;;;;;;5.29;100.00;101277.66;3574033;40;20049;-41
2021/04/19 05:20:47;;;;;;;58.50;18.58;;;;;;;5.07;100.00;101274.69;3573638;40;20057;-44
2021/04/19 05:23:15;;;;;;;50.47;17.38;;;;;;;5.29;100.00;101271.72;3572506;40;20839;-43
2021/04/19 05:25:43;;;;;;;90.90;19.35;;;;;;;5.50;100.00;101272.00;3573881;40;20715;-42
2021/04/19 05:28:11;;;;;;;36.42;15.85;;;;;;;5.90;100.00;101275.06;3573250;40;20049;-42
2021/04/19 05:30:40;;;;;;;45.58;17.83;;;;;;;5.09;100.00;101271.47;3573513;40;20073;-42
2021/04/19 05:33:08;;;;;;;39.03;17.30;;;;;;;4.99;100.00;101270.81;3573474;40;20060;-43
2021/04/19 05:35:36;;;;;;;26.50;17.35;;;;;;;5.48;100.00;101274.47;3573980;40;20052;-49
2021/04/19 05:38:04;;;;;;;26.83;15.95;;;;;;;5.55;100.00;101263.88;3571381;40;20085;-44
2021/04/19 05:40:35;;;;;;;31.17;17.23;;;;;;;4.96;100.00;101270.69;3571109;40;20112;-42
2021/04/19 05:43:03;;;;;;;23.42;17.25;;;;;;;5.32;100.00;101266.81;3572550;40;20657;-44
2021/04/19 05:45:31;;;;;;;25.35;16.20;;;;;;;5.78;100.00;101264.25;3571418;40;20084;-40
2021/04/19 05:47:59;;;;;;;30.48;16.23;;;;;;;5.31;100.00;101260.84;3573469;40;20087;-42
2021/04/19 05:50:27;;;;;;;25.27;17.17;;;;;;;5.04;100.00;101264.38;3573706;40;20053;-41
2021/04/19 05:52:57;;;;;;;24.02;18.02;;;;;;;5.19;100.00;101255.09;3573510;40;20056;-44
2021/04/19 05:55:26;;;;;;;24.58;19.85;;;;;;;5.47;100.00;101259.16;3573484;40;20093;-44
2021/04/19 05:58:38;;;;;;;27.42;19.65;;;;;;;5.30;100.00;101263.28;3573395;40;20045;-42
2021/04/19 06:01:10;;;;;;;24.05;17.17;;;;;;;5.97;100.00;101256.00;3571905;40;20091;-42
2021/04/19 06:03:40;;;;;;;22.00;17.83;;;;;;;5.87;100.00;101259.69;3571898;40;20044;-41
2021/04/19 06:06:35;;;;;;;23.05;17.90;;;;;;;5.43;100.00;101280.97;3572033;40;20113;-45
2021/04/19 06:09:14;;;;;;;21.92;17.55;;;;;;;5.60;100.00;101266.66;3573520;40;20571;-45
2021/04/19 06:11:46;;;;;;;25.08;18.50;;;;;;;6.18;100.00;101269.81;3568711;40;20137;-47
2021/04/19 06:14:16;;;;;;;23.98;18.88;;;;;;;6.58;100.00;101274.44;3571821;40;20072;-42
2021/04/19 06:16:44;;;;;;;21.08;17.23;;;;;;;6.85;100.00;101278.38;3572304;40;20425;-42
2021/04/19 06:19:14;;;;;;;23.67;18.95;;;;;;;6.59;100.00;101274.50;3573482;40;20084;-46
2021/04/19 06:21:42;;;;;;;24.85;19.27;;;;;;;6.53;100.00;101278.41;3573307;40;20457;-45
2021/04/19 06:24:11;;;;;;;22.17;18.02;;;;;;;6.79;100.00;101288.22;3572931;40;20072;-48
2021/04/19 06:26:41;;;;;;;23.58;19.27;;;;;;;6.72;100.00;101282.78;3573133;40;20061;-42
2021/04/19 06:29:09;;;;;;;22.02;18.95;;;;;;;7.04;100.00;101284.38;3572501;40;20134;-46
2021/04/19 06:31:47;;;;;;;23.42;18.05;;;;;;;7.41;100.00;101271.75;3573463;40;20480;-43
2021/04/19 06:34:15;;;;;;;21.75;17.95;;;;;;;7.40;100.00;101275.97;3571833;40;20060;-41
2021/04/19 06:36:43;;;;;;;19.63;16.90;;;;;;;7.87;100.00;101272.22;3570476;40;20061;-43
2021/04/19 06:39:13;;;;;;;19.10;16.92;;;;;;;8.02;100.00;101274.59;3570337;40;20041;-46
2021/04/19 06:41:41;;;;;;;22.77;18.45;;;;;;;8.05;100.00;101268.78;3571201;40;20320;-42
2021/04/19 06:44:08;;;;;;;23.42;17.92;;;;;;;7.80;100.00;101279.50;3567659;40;20037;-42
2021/04/19 06:46:38;;;;;;;20.08;16.77;;;;;;;7.90;100.00;101280.03;3573603;40;20880;-44
2021/04/19 06:49:07;;;;;;;20.65;17.00;;;;;;;7.77;100.00;101280.25;3573413;40;20609;-44
2021/04/19 06:51:34;;;;;;;21.80;17.58;;;;;;;8.09;100.00;101273.22;3573396;40;20701;-46
2021/04/19 06:54:02;;;;;;;22.83;18.45;;;;;;;8.79;97.63;101270.34;3573025;40;20326;-42
2021/04/19 06:56:38;;;;;;;20.92;17.38;;;;;;;8.88;99.15;101273.28;3570583;40;20113;-43
2021/04/19 06:59:05;;;;;;;23.90;17.67;;;;;;;8.86;99.19;101270.63;3573472;40;20081;-43
2021/04/19 07:01:33;;;;;;;22.23;17.88;;;;;;;8.54;100.00;101268.41;3573285;40;20068;-41
2021/04/19 07:04:14;;;;;;;24.60;19.77;;;;;;;8.19;100.00;101270.25;3573483;40;20400;-44
2021/04/19 07:06:42;;;;;;;25.88;19.65;;;;;;;8.04;100.00;101269.56;3571384;40;20051;-40
2021/04/19 07:09:27;;;;;;;23.30;18.80;;;;;;;8.60;100.00;101278.88;3573046;40;20053;-41
2021/04/19 07:12:13;;;;;;;25.30;19.45;;;;;;;8.62;97.98;101279.81;3573021;40;20064;-45
2021/04/19 07:14:40;;;;;;;24.03;19.10;;;;;;;8.87;99.88;101277.50;3574041;40;20057;-45
2021/04/19 07:17:08;;;;;;;25.63;19.77;;;;;;;8.39;100.00;101266.94;3578247;40;20138;-42
2021/04/19 07:19:36;;;;;;;24.40;20.00;;;;;;;8.40;100.00;101270.34;3576011;40;20059;-43
2021/04/19 07:22:04;;;;;;;25.10;19.83;;;;;;;9.18;98.79;101271.09;3573479;40;20068;-42
2021/04/19 07:24:33;;;;;;;25.08;20.70;;;;;;;9.40;99.45;101278.81;3573234;40;20045;-45
2021/04/19 07:27:03;;;;;;;25.95;20.33;;;;;;;9.52;96.59;101270.78;3573033;40;20052;-42
2021/04/19 07:29:30;;;;;;;26.08;21.00;;;;;;;8.71;97.91;101277.66;3570269;40;20095;-41
2021/04/19 07:31:58;;;;;;;29.10;22.30;;;;;;;8.20;100.00;101282.19;3572792;40;20071;-43
2021/04/19 07:34:30;;;;;;;27.83;22.45;;;;;;;8.47;100.00;101274.94;3572912;40;20067;-44
2021/04/19 07:37:10;;;;;;;29.00;23.88;;;;;;;8.34;100.00;101283.69;3572827;40;20053;-44
2021/04/19 07:39:41;;;;;;;30.45;23.55;;;;;;;8.33;100.00;101284.50;3570817;40;20049;-47
2021/04/19 07:42:10;;;;;;;31.00;24.08;;;;;;;8.43;100.00;101295.16;3571338;40;20045;-51
2021/04/19 07:44:43;;;;;;;30.98;24.63;;;;;;;7.82;100.00;101296.63;3573418;40;20052;-42
2021/04/19 07:47:17;;;;;;;29.73;24.05;;;;;;;8.21;100.00;101298.38;3574120;40;20075;-45
2021/04/19 07:50:17;;;;;;;34.60;25.05;;;;;;;8.59;100.00;101277.13;3574752;40;20883;-46
2021/04/19 07:53:07;;;;;;;34.47;24.02;;;;;;;8.67;100.00;101291.97;3572953;40;20051;-42
2021/04/19 07:55:38;;;;;;;33.42;24.85;;;;;;;8.71;100.00;101279.34;3572234;40;20049;-41
2021/04/19 07:58:16;;;;;;;29.70;24.15;;;;;;;9.22;100.00;101272.97;3574491;40;20805;-43
2021/04/19 08:00:42;;;;;;;27.60;22.55;;;;;;;9.58;100.00;101265.00;3574464;40;20076;-46
2021/04/19 08:03:14;;;;;;;30.63;21.75;;;;;;;9.72;100.00;101274.09;3574291;40;20045;-42
2021/04/19 08:05:51;;;;;;;28.45;21.40;;;;;;;8.95;100.00;101267.59;3575098;40;20049;-44
2021/04/19 08:08:28;;;;;;;29.92;22.25;;;;;;;9.38;100.00;101274.44;3574907;40;20134;-45
2021/04/19 08:11:07;;;;;;;32.95;23.85;;;;;;;8.83;100.00;101259.44;3575386;40;20049;-43
2021/04/19 08:13:33;;;;;;;32.67;24.73;;;;;;;9.19;100.00;101248.16;3572551;40;20057;-44
2021/04/19 08:16:17;;;;;;;32.92;23.92;;;;;;;9.08;100.00;101245.97;3575441;40;20075;-42
2021/04/19 08:18:50;;;;;;;32.53;23.98;;;;;;;9.32;100.00;101240.97;3573602;40;20116;-43
2021/04/19 08:21:29;;;;;;;31.75;22.55;;;;;;;9.21;100.00;101243.13;3575386;40;20044;-40
2021/04/19 08:24:13;;;;;;;31.77;24.08;;;;;;;9.01;100.00;101243.97;3574428;40;20048;-45
2021/04/19 08:26:56;;;;;;;32.60;22.67;;;;;;;9.61;100.00;101258.34;3572613;40;20340;-44
2021/04/19 08:29:45;;;;;;;31.75;23.08;;;;;;;9.98;100.00;101251.16;3574405;40;20065;-44
2021/04/19 08:32:14;;;;;;;30.40;23.05;;;;;;;9.99;100.00;101242.69;3573947;40;20041;-43
2021/04/19 08:34:42;;;;;;;31.15;23.17;;;;;;;9.95;100.00;101234.91;3572724;40;20136;-45
2021/04/19 08:37:11;;;;;;;28.63;21.80;;;;;;;10.24;100.00;101221.41;3574084;40;20064;-40
2021/04/19 08:39:39;;;;;;;31.67;24.27;;;;;;;10.30;100.00;101207.16;3573992;40;20053;-45
2021/04/19 08:42:22;;;;;;;36.60;27.02;;;;;;;10.11;100.00;101185.13;3573584;40;20724;-44
2021/04/19 08:44:52;;;;;;;35.75;25.52;;;;;;;10.32;100.00;101189.31;3574062;40;20056;-43
2021/04/19 08:47:20;;;;;;;36.17;25.17;;;;;;;9.94;100.00;101194.78;3573802;40;20052;-42
2021/04/19 08:49:51;;;;;;;36.42;25.67;;;;;;;9.71;100.00;101203.31;3573872;40;20068;-41
2021/04/19 08:52:18;;;;;;;32.08;23.90;;;;;;;9.92;100.00;101216.88;3573976;40;20112;-41
2021/04/19 08:54:48;;;;;;;36.15;25.20;;;;;;;10.24;99.19;101216.28;3573855;40;20057;-44
2021/04/19 08:57:15;;;;;;;35.20;25.23;;;;;;;10.17;98.62;101217.78;3572830;40;20067;-42
2021/04/19 08:59:46;;;;;;;32.67;23.65;;;;;;;10.25;99.29;101230.84;3574195;40;20088;-41
2021/04/19 09:02:20;;;;;;;37.53;25.38;;;;;;;9.82;100.00;101227.56;3572655;40;20053;-47
2021/04/19 09:05:08;;;;;;;33.47;24.40;;;;;;;10.03;98.84;101226.63;3574002;40;20061;-46
2021/04/19 09:07:38;;;;;;;33.83;24.48;;;;;;;9.98;100.00;101233.25;3571779;40;20693;-43
2021/04/19 09:10:08;;;;;;;32.13;25.40;;;;;;;9.72;100.00;101238.28;3574334;40;20744;-44
2021/04/19 09:12:35;;;;;;;35.22;25.80;;;;;;;9.46;100.00;101242.38;3573969;40;20056;-42
2021/04/19 09:15:29;;;;;;;35.65;25.83;;;;;;;9.37;100.00;101252.25;3572872;40;20064;-43
2021/04/19 09:18:10;;;;;;;39.85;26.83;;;;;;;9.32;100.00;101251.19;3572888;40;20390;-42
2021/04/19 09:20:52;;;;;;;35.10;25.98;;;;;;;10.11;100.00;101253.34;3571890;40;20060;-41
2021/04/19 09:23:25;;;;;;;39.50;26.23;;;;;;;10.29;99.31;101251.50;3573364;40;20591;-44
2021/04/19 09:25:53;;;;;;;41.15;27.70;;;;;;;9.91;100.00;101247.50;3573613;40;20083;-44
2021/04/19 09:28:41;;;;;;;33.53;24.08;;;;;;;10.72;97.36;101255.53;3573666;40;20060;-43
2021/04/19 09:31:09;;;;;;;36.35;25.80;;;;;;;10.63;97.56;101248.44;3573068;40;20122;-45
2021/04/19 09:33:37;;;;;;;40.20;25.17;;;;;;;10.28;100.00;101238.66;3573944;40;20057;-47
2021/04/19 09:36:06;;;;;;;38.30;26.67;;;;;;;10.78;98.57;101250.66;3574283;40;20108;-43
2021/04/19 09:38:49;;;;;;;39.28;25.95;;;;;;;11.24;96.07;101251.28;3573897;40;20971;-43
2021/04/19 09:41:17;;;;;;;39.65;27.45;;;;;;;11.37;95.29;101249.16;3572783;40;20077;-45
2021/04/19 09:43:49;;;;;;;38.83;26.55;;;;;;;11.23;94.43;101242.72;3573146;40;20154;-49
2021/04/19 09:46:15;;;;;;;40.17;27.75;;;;;;;11.18;96.42;101239.13;3572209;40;20069;-45
2021/04/19 09:48:48;;;;;;;38.42;27.90;;;;;;;10.66;99.51;101240.84;3573579;40;20053;-45
2021/04/19 09:51:23;;;;;;;37.47;28.08;;;;;;;10.69;98.70;101240.97;3572574;40;20036;-45
2021/04/19 09:54:04;;;;;;;40.10;28.95;;;;;;;10.70;100.00;101235.00;3573780;40;20060;-43
2021/04/19 09:56:55;;;;;;;43.42;30.48;;;;;;;10.47;99.78;101232.50;3571246;40;20413;-42
2021/04/19 09:59:24;;;;;;;41.83;31.45;;;;;;;10.93;97.80;101225.53;3573304;40;20084;-43
2021/04/19 10:01:52;;;;;;;47.35;33.53;;;;;;;11.13;95.75;101230.44;3573390;40;20064;-45
2021/04/19 10:04:20;;;;;;;53.72;33.80;;;;;;;10.94;97.98;101229.81;3573689;40;20171;-42
2021/04/19 10:06:52;;;;;;;46.45;31.35;;;;;;;11.14;99.19;101239.88;3573546;40;20068;-42
2021/04/19 10:09:25;;;;;;;50.53;33.75;;;;;;;11.35;96.71;101237.09;3572746;40;20055;-43
2021/04/19 10:11:59;;;;;;;53.35;34.65;;;;;;;11.19;99.19;101223.81;3573692;40;20125;-44
2021/04/19 10:14:27;;;;;;;54.80;35.75;;;;;;;11.23;98.37;101229.88;3571785;40;20203;-43
2021/04/19 10:16:54;;;;;;;51.13;34.45;;;;;;;11.04;98.87;101227.56;3574749;40;20045;-44
2021/04/19 10:19:28;;;;;;;48.53;34.75;;;;;;;11.29;95.70;101237.78;3577852;40;20085;-41
2021/04/19 10:22:06;;;;;;;49.67;34.72;;;;;;;11.16;98.25;101231.41;3575212;40;20049;-46
2021/04/19 10:24:35;;;;;;;54.70;34.33;;;;;;;11.18;96.75;101237.47;3571562;40;20065;-42
2021/04/19 10:27:04;;;;;;;55.17;35.42;;;;;;;11.40;95.38;101233.84;3573809;40;20052;-43
2021/04/19 10:29:31;;;;;;;50.53;34.83;;;;;;;11.24;94.71;101241.91;3571172;40;20348;-41
2021/04/19 10:32:01;;;;;;;50.47;34.28;;;;;;;11.14;95.61;101240.75;3568443;40;20049;-42
2021/04/19 10:34:32;;;;;;;60.17;39.70;;;;;;;10.59;100.00;101233.78;3573563;40;20063;-41
2021/04/19 10:37:03;;;;;;;60.03;37.70;;;;;;;11.00;98.90;101230.84;3573518;40;20044;-42
2021/04/19 10:39:35;;;;;;;64.47;36.17;;;;;;;10.98;98.83;101229.94;3569957;40;20059;-48
2021/04/19 10:42:05;;;;;;;54.80;37.63;;;;;;;11.08;99.76;101230.28;3573529;40;20650;-47
2021/04/19 10:44:40;;;;;;;50.42;33.28;;;;;;;11.30;97.03;101233.53;3570137;40;20048;-41
2021/04/19 10:47:09;;;;;;;45.05;31.98;;;;;;;11.41;93.48;101227.91;3573642;40;20319;-45
2021/04/19 10:49:37;;;;;;;46.45;32.85;;;;;;;11.18;96.13;101226.31;3573276;40;20331;-40
2021/04/19 10:52:06;;;;;;;46.97;33.78;;;;;;;11.43;96.45;101223.72;3573490;40;20041;-42
2021/04/19 10:54:42;;;;;;;48.17;34.67;;;;;;;11.20;96.86;101222.13;3573430;40;20056;-42
2021/04/19 10:57:29;;;;;;;43.45;31.77;;;;;;;11.84;93.08;101216.41;3572965;40;20049;-47
2021/04/19 10:59:58;;;;;;;41.97;31.83;;;;;;;11.75;93.60;101228.06;3573086;40;20087;-41
2021/04/19 11:02:29;;;;;;;43.42;31.05;;;;;;;11.62;94.77;101230.25;3572959;40;20053;-45
2021/04/19 11:04:57;;;;;;;40.15;29.02;;;;;;;11.33;92.82;101241.34;3571828;40;20085;-41
2021/04/19 11:07:27;;;;;;;40.03;29.83;;;;;;;11.51;93.05;101231.66;3573426;40;20429;-45
2021/04/19 11:10:10;;;;;;;41.03;30.17;;;;;;;11.91;90.35;101231.13;3572077;40;20345;-43
2021/04/19 11:12:37;;;;;;;39.33;29.00;;;;;;;12.01;89.84;101216.88;3568660;40;20141;-43
2021/04/19 11:15:28;;;;;;;43.20;30.85;;;;;;;12.13;90.30;101219.78;3571867;40;20154;-44
2021/04/19 11:17:57;;;;;;;38.92;29.20;;;;;;;12.63;89.33;101216.84;3565344;40;20295;-45
2021/04/19 11:20:33;;;;;;;36.35;27.75;;;;;;;13.84;82.28;101219.69;3572368;40;20052;-41
2021/04/19 11:23:03;;;;;;;36.15;27.50;;;;;;;13.98;80.52;101213.97;3572968;40;20061;-43
2021/04/19 11:25:31;;;;;;;34.42;27.05;;;;;;;14.17;80.09;101206.63;3573476;40;20063;-42
2021/04/19 11:28:23;;;;;;;37.47;27.98;;;;;;;14.00;82.82;101203.69;3572374;40;20057;-42
2021/04/19 11:30:53;;;;;;;33.42;26.75;;;;;;;14.91;76.60;101194.22;3573605;40;20402;-42